createdAt,value
2022-12-16T00:00:09.028Z,100441.72
2022-12-16T00:02:41.624Z,100450.94
2022-12-16T00:05:15.981Z,100451.78
2022-12-16T00:07:42.529Z,100461.59
2022-12-16T00:10:09.452Z,100466.94
2022-12-16T00:12:36.040Z,100463.13
2022-12-16T00:15:02.720Z,100460.19
2022-12-16T00:17:29.400Z,100468.13
2022-12-16T00:19:56.042Z,100467.16
2022-12-16T00:22:23.272Z,100466.34
2022-12-16T00:24:50.181Z,100462.19
2022-12-16T00:27:17.154Z,100467.69
2022-12-16T00:29:47.206Z,100470.06
2022-12-16T00:32:14.083Z,100464.03
2022-12-16T00:34:43.125Z,100459.66
2022-12-16T00:37:11.921Z,100461.63
2022-12-16T00:39:39.064Z,100466.81
2022-12-16T00:42:06.345Z,100477.78
2022-12-16T00:44:38.705Z,100477.94
2022-12-16T00:47:08.254Z,100481.84
2022-12-16T00:49:35.350Z,100480.09
2022-12-16T00:52:02.738Z,100481.50
2022-12-16T00:54:31.450Z,100481.69
2022-12-16T00:56:58.095Z,100485.06
2022-12-16T00:59:24.922Z,100482.31
2022-12-16T01:01:57.322Z,100486.94
2022-12-16T01:04:26.625Z,100486.38
2022-12-16T01:06:54.737Z,100491.94
2022-12-16T01:09:22.022Z,100493.78
2022-12-16T01:11:48.632Z,100496.13
2022-12-16T01:14:15.392Z,100503.03
2022-12-16T01:16:41.991Z,100510.53
2022-12-16T01:19:09.672Z,100509.41
2022-12-16T01:21:36.308Z,100507.78
2022-12-16T01:24:02.952Z,100513.34
2022-12-16T01:26:30.061Z,100510.53
2022-12-16T01:28:56.928Z,100510.53
2022-12-16T01:31:24.294Z,100512.78
2022-12-16T01:33:51.108Z,100509.84
2022-12-16T01:36:19.674Z,100517.72
2022-12-16T01:38:46.416Z,100524.06
2022-12-16T01:41:14.117Z,100513.28
2022-12-16T01:43:41.709Z,100517.00
2022-12-16T01:46:10.117Z,100510.72
2022-12-16T01:48:52.927Z,100506.47
2022-12-16T01:51:26.239Z,100510.06
2022-12-16T01:53:57.373Z,100514.09
2022-12-16T01:56:25.625Z,100523.09
2022-12-16T01:58:52.489Z,100516.75
2022-12-16T02:01:19.254Z,100508.38
2022-12-16T02:03:46.879Z,100511.53
2022-12-16T02:06:13.548Z,100519.41
2022-12-16T02:08:40.300Z,100517.13
2022-12-16T02:11:28.692Z,100517.28
2022-12-16T02:14:01.240Z,100519.13
2022-12-16T02:17:01.355Z,100518.72
2022-12-16T02:20:09.325Z,100513.34
2022-12-16T02:22:57.953Z,100524.25
2022-12-16T02:25:47.017Z,100526.91
2022-12-16T02:28:32.668Z,100523.47
2022-12-16T02:31:10.807Z,100516.22
2022-12-16T02:34:09.368Z,100506.00
2022-12-16T02:37:12.754Z,100512.88
2022-12-16T02:40:00.292Z,100517.38
2022-12-16T02:42:32.410Z,100516.59
2022-12-16T02:45:13.498Z,100514.31
2022-12-16T02:47:40.176Z,100508.13
2022-12-16T02:50:27.114Z,100508.84
2022-12-16T02:52:55.050Z,100507.63
2022-12-16T02:55:29.716Z,100504.59
2022-12-16T02:58:04.942Z,100504.56
2022-12-16T03:00:49.444Z,100504.34
2022-12-16T03:03:24.667Z,100501.56
2022-12-16T03:05:52.713Z,100499.72
2022-12-16T03:08:23.363Z,100494.78
2022-12-16T03:10:57.355Z,100491.69
2022-12-16T03:13:24.658Z,100497.81
2022-12-16T03:15:53.696Z,100494.16
2022-12-16T03:18:29.477Z,100491.34
2022-12-16T03:21:02.952Z,100494.78
2022-12-16T03:23:34.426Z,100480.44
2022-12-16T03:26:06.348Z,100491.94
2022-12-16T03:28:32.945Z,100481.56
2022-12-16T03:31:13.164Z,100497.94
2022-12-16T03:33:45.816Z,100491.44
2022-12-16T03:36:21.300Z,100489.38
2022-12-16T03:38:48.658Z,100490.19
2022-12-16T03:41:18.945Z,100499.34
2022-12-16T03:43:48.715Z,100491.69
2022-12-16T03:46:18.147Z,100486.91
2022-12-16T03:48:54.609Z,100486.72
2022-12-16T03:51:21.402Z,100485.56
2022-12-16T03:53:48.060Z,100484.38
2022-12-16T03:56:14.729Z,100489.97
2022-12-16T03:58:41.478Z,100485.03
2022-12-16T04:01:09.516Z,100487.22
2022-12-16T04:03:37.748Z,100481.38
2022-12-16T04:06:04.967Z,100482.63
2022-12-16T04:08:32.438Z,100483.44
2022-12-16T04:11:17.715Z,100481.84
2022-12-16T04:14:02.860Z,100485.41
2022-12-16T04:16:48.709Z,100493.28
2022-12-16T04:20:05.994Z,100495.69
2022-12-16T04:22:55.369Z,100491.25
2022-12-16T04:25:30.715Z,100502.44
2022-12-16T04:27:58.649Z,100504.28
2022-12-16T04:30:27.581Z,100511.94
2022-12-16T04:33:25.087Z,100513.13
2022-12-16T04:36:10.260Z,100514.00
2022-12-16T04:38:55.485Z,100517.84
2022-12-16T04:41:40.757Z,100514.41
2022-12-16T04:44:26.120Z,100521.28
2022-12-16T04:47:11.777Z,100513.00
2022-12-16T04:49:59.497Z,100515.09
2022-12-16T04:52:44.791Z,100513.53
2022-12-16T04:55:36.662Z,100512.16
2022-12-16T04:58:23.857Z,100512.16
2022-12-16T05:01:09.291Z,100520.72
2022-12-16T05:03:56.338Z,100517.66
2022-12-16T05:06:41.693Z,100532.06
2022-12-16T05:09:27.655Z,100531.28
2022-12-16T05:12:13.013Z,100534.81
2022-12-16T05:14:58.401Z,100533.16
2022-12-16T05:17:45.257Z,100537.25
2022-12-16T05:20:30.575Z,100540.22
2022-12-16T05:23:15.960Z,100538.66
2022-12-16T05:26:02.265Z,100543.34
2022-12-16T05:28:48.259Z,100550.38
2022-12-16T05:31:33.661Z,100545.69
2022-12-16T05:34:19.035Z,100553.19
2022-12-16T05:37:04.398Z,100555.69
2022-12-16T05:39:49.796Z,100560.41
2022-12-16T05:42:35.031Z,100559.59
2022-12-16T05:45:20.502Z,100566.34
2022-12-16T05:48:08.771Z,100561.75
2022-12-16T05:50:57.535Z,100560.00
2022-12-16T05:53:42.950Z,100570.78
2022-12-16T05:56:31.479Z,100570.09
2022-12-16T05:59:16.909Z,100571.84
2022-12-16T06:02:05.478Z,100572.44
2022-12-16T06:04:51.025Z,100579.31
2022-12-16T06:07:37.686Z,100570.97
2022-12-16T06:10:23.643Z,100581.56
2022-12-16T06:13:08.927Z,100585.53
2022-12-16T06:15:54.497Z,100591.59
2022-12-16T06:18:39.744Z,100597.38
2022-12-16T06:21:24.923Z,100594.13
2022-12-16T06:24:12.034Z,100615.13
2022-12-16T06:26:57.394Z,100609.75
2022-12-16T06:29:43.146Z,100621.44
2022-12-16T06:32:28.450Z,100622.31
2022-12-16T06:35:13.949Z,100625.75
2022-12-16T06:37:59.222Z,100629.19
2022-12-16T06:40:44.571Z,100622.50
2022-12-16T06:43:30.331Z,100624.34
2022-12-16T06:46:18.765Z,100632.59
2022-12-16T06:49:06.602Z,100638.41
2022-12-16T06:51:51.853Z,100641.84
2022-12-16T06:54:37.155Z,100647.47
2022-12-16T06:57:22.458Z,100635.03
2022-12-16T07:00:08.130Z,100649.84
2022-12-16T07:02:54.007Z,100660.25
2022-12-16T07:05:39.316Z,100654.88
2022-12-16T07:08:24.785Z,100655.66
2022-12-16T07:11:16.577Z,100661.53
2022-12-16T07:14:05.038Z,100657.63
2022-12-16T07:16:50.455Z,100661.31
2022-12-16T07:19:38.526Z,100673.75
2022-12-16T07:22:24.049Z,100675.75
2022-12-16T07:25:09.370Z,100684.47
2022-12-16T07:27:54.813Z,100683.88
2022-12-16T07:30:40.577Z,100691.31
2022-12-16T07:33:25.989Z,100695.00
2022-12-16T07:36:11.288Z,100698.66
2022-12-16T07:38:57.216Z,100704.91
2022-12-16T07:41:42.578Z,100707.16
2022-12-16T07:44:27.860Z,100702.47
2022-12-16T07:47:13.143Z,100703.94
2022-12-16T07:49:58.434Z,100711.34
2022-12-16T07:52:44.149Z,100715.94
2022-12-16T07:55:29.530Z,100718.84
2022-12-16T07:58:14.756Z,100726.53
2022-12-16T08:01:03.725Z,100723.53
2022-12-16T08:03:51.739Z,100724.44
2022-12-16T08:06:40.464Z,100739.06
2022-12-16T08:09:25.858Z,100731.38
2022-12-16T08:12:11.130Z,100732.91
2022-12-16T08:14:56.405Z,100740.41
2022-12-16T08:17:41.879Z,100736.78
2022-12-16T08:20:27.710Z,100753.13
2022-12-16T08:23:12.903Z,100755.69
2022-12-16T08:25:58.045Z,100758.44
2022-12-16T08:28:43.193Z,100758.69
2022-12-16T08:31:28.451Z,100763.09
2022-12-16T08:34:13.832Z,100757.78
2022-12-16T08:36:59.302Z,100765.91
2022-12-16T08:39:44.562Z,100763.50
2022-12-16T08:42:29.854Z,100765.69
2022-12-16T08:45:15.257Z,100773.91
2022-12-16T08:48:00.411Z,100769.22
2022-12-16T08:50:45.681Z,100771.47
2022-12-16T08:53:31.231Z,100777.91
2022-12-16T08:56:16.643Z,100774.00
2022-12-16T08:59:01.938Z,100774.81
2022-12-16T09:01:47.377Z,100772.84
2022-12-16T09:04:32.897Z,100781.50
2022-12-16T09:07:18.210Z,100785.34
2022-12-16T09:10:03.580Z,100786.69
2022-12-16T09:12:48.883Z,100787.72
2022-12-16T09:15:34.238Z,100793.94
2022-12-16T09:18:19.477Z,100793.47
2022-12-16T09:21:04.708Z,100790.25
2022-12-16T09:23:49.910Z,100793.84
2022-12-16T09:26:35.483Z,100792.41
2022-12-16T09:29:20.836Z,100786.28
2022-12-16T09:32:06.234Z,100791.09
2022-12-16T09:34:51.444Z,100799.25
2022-12-16T09:37:36.749Z,100793.28
2022-12-16T09:40:22.620Z,100803.78
2022-12-16T09:43:35.077Z,100810.44
2022-12-16T09:46:31.928Z,100808.50
2022-12-16T09:49:48.757Z,100810.63
2022-12-16T09:52:36.003Z,100822.44
2022-12-16T09:55:23.222Z,100808.78
2022-12-16T09:58:09.148Z,100815.28
2022-12-16T10:00:54.983Z,100820.56
2022-12-16T10:03:53.227Z,100829.81
2022-12-16T10:06:52.768Z,100827.81
2022-12-16T10:10:02.336Z,100824.88
2022-12-16T10:13:16.797Z,100817.47
2022-12-16T10:16:17.355Z,100819.31
2022-12-16T10:19:35.173Z,100818.63
2022-12-16T10:22:32.365Z,100817.56
2022-12-16T10:25:30.076Z,100820.22
2022-12-16T10:28:25.469Z,100813.13
2022-12-16T10:31:10.837Z,100817.81
2022-12-16T10:33:56.198Z,100817.00
2022-12-16T10:36:42.628Z,100810.19
2022-12-16T10:39:45.344Z,100812.41
2022-12-16T10:42:41.358Z,100813.00
2022-12-16T10:45:53.090Z,100814.19
2022-12-16T10:48:56.607Z,100811.59
2022-12-16T10:51:44.894Z,100803.75
2022-12-16T10:54:39.385Z,100811.81
2022-12-16T10:57:48.720Z,100807.75
2022-12-16T11:01:02.863Z,100813.72
2022-12-16T11:03:50.715Z,100809.91
2022-12-16T11:06:54.403Z,100814.66
2022-12-16T11:09:47.791Z,100816.97
2022-12-16T11:12:53.258Z,100824.59
2022-12-16T11:15:41.835Z,100827.06
2022-12-16T11:18:39.317Z,100816.88
2022-12-16T11:21:29.763Z,100817.41
2022-12-16T11:24:37.772Z,100816.66
2022-12-16T11:27:25.729Z,100821.75
2022-12-16T11:30:38.360Z,100812.75
2022-12-16T11:33:38.000Z,100816.44
2022-12-16T11:36:32.746Z,100805.72
2022-12-16T11:39:18.086Z,100813.13
2022-12-16T11:42:06.071Z,100816.66
2022-12-16T11:45:03.190Z,100817.47
2022-12-16T11:47:58.045Z,100816.91
2022-12-16T11:50:44.354Z,100819.94
2022-12-16T11:53:51.527Z,100824.28
2022-12-16T11:56:41.899Z,100824.59
2022-12-16T11:59:39.605Z,100820.25
2022-12-16T12:02:32.940Z,100829.25
2022-12-16T12:05:18.450Z,100834.28
2022-12-16T12:08:36.966Z,100833.22
2022-12-16T12:11:29.460Z,100831.72
2022-12-16T12:14:32.110Z,100842.31
2022-12-16T12:17:31.314Z,100835.28
2022-12-16T12:20:50.353Z,100842.31
2022-12-16T12:23:48.875Z,100836.13
2022-12-16T12:26:40.195Z,100840.19
2022-12-16T12:29:44.589Z,100851.22
2022-12-16T12:33:11.447Z,100851.09
2022-12-16T12:36:04.534Z,100852.59
2022-12-16T12:38:54.631Z,100849.78
2022-12-16T12:41:46.968Z,100845.59
2022-12-16T12:44:58.610Z,100854.16
2022-12-16T12:48:05.748Z,100848.63
2022-12-16T12:51:12.901Z,100852.09
2022-12-16T12:54:06.299Z,100858.06
2022-12-16T12:57:08.582Z,100865.50
2022-12-16T13:00:13.961Z,100865.75
2022-12-16T13:03:24.129Z,100860.69
2022-12-16T13:06:10.056Z,100870.78
2022-12-16T13:09:07.707Z,100870.75
2022-12-16T13:11:54.065Z,100867.16
2022-12-16T13:14:49.822Z,100874.56
2022-12-16T13:17:41.884Z,100882.72
2022-12-16T13:20:52.488Z,100877.19
2022-12-16T13:23:54.589Z,100881.09
2022-12-16T13:26:44.752Z,100887.09
2022-12-16T13:29:29.881Z,100884.81
2022-12-16T13:32:23.379Z,100880.59
2022-12-16T13:35:18.920Z,100889.69
2022-12-16T13:38:15.141Z,100900.38
2022-12-16T13:41:15.145Z,100893.50
2022-12-16T13:44:13.673Z,100895.97
2022-12-16T13:47:07.803Z,100907.03
2022-12-16T13:49:56.440Z,100910.34
2022-12-16T13:52:50.910Z,100905.47
2022-12-16T13:55:38.430Z,100907.84
2022-12-16T13:58:27.207Z,100906.19
2022-12-16T14:01:15.036Z,100911.78
2022-12-16T14:04:04.354Z,100927.50
2022-12-16T14:06:50.385Z,100925.47
2022-12-16T14:09:56.929Z,100937.09
2022-12-16T14:12:54.016Z,100938.09
2022-12-16T14:15:46.601Z,100938.28
2022-12-16T14:18:43.976Z,100942.44
2022-12-16T14:21:32.825Z,100947.97
2022-12-16T14:24:23.518Z,100945.19
2022-12-16T14:27:08.800Z,100949.09
2022-12-16T14:29:54.000Z,100949.41
2022-12-16T14:32:53.534Z,100946.34
2022-12-16T14:35:40.937Z,100944.81
2022-12-16T14:38:48.903Z,100950.94
2022-12-16T14:41:43.613Z,100955.03
2022-12-16T14:44:42.267Z,100960.25
2022-12-16T14:47:47.654Z,100960.28
2022-12-16T14:50:48.059Z,100971.25
2022-12-16T14:53:42.774Z,100970.78
2022-12-16T14:56:34.274Z,100983.84
2022-12-16T14:59:45.813Z,100989.00
2022-12-16T15:02:55.740Z,100990.81
2022-12-16T15:05:49.661Z,100992.31
2022-12-16T15:08:35.259Z,100986.69
2022-12-16T15:11:22.349Z,100995.31
2022-12-16T15:14:13.105Z,100991.69
2022-12-16T15:16:58.367Z,100989.81
2022-12-16T15:19:43.811Z,100998.38
2022-12-16T15:22:33.811Z,100993.94
2022-12-16T15:25:19.081Z,101001.50
2022-12-16T15:28:12.507Z,100998.88
2022-12-16T15:31:03.497Z,101002.22
2022-12-16T15:33:54.387Z,101010.13
2022-12-16T15:36:49.426Z,101018.19
2022-12-16T15:39:39.712Z,101009.44
2022-12-16T15:42:37.547Z,101015.28
2022-12-16T15:45:23.445Z,101019.09
2022-12-16T15:48:09.799Z,101020.09
2022-12-16T15:51:11.892Z,101017.66
2022-12-16T15:53:57.723Z,101028.59
2022-12-16T15:56:45.613Z,101029.81
2022-12-16T15:59:46.130Z,101042.22
2022-12-16T16:02:40.772Z,101040.06
2022-12-16T16:05:35.303Z,101034.56
2022-12-16T16:08:20.724Z,101044.81
2022-12-16T16:11:06.028Z,101048.28
2022-12-16T16:13:51.335Z,101050.06
2022-12-16T16:16:37.137Z,101049.16
2022-12-16T16:19:22.993Z,101063.69
2022-12-16T16:22:08.229Z,101065.53
2022-12-16T16:24:53.638Z,101067.16
2022-12-16T16:27:38.833Z,101069.41
2022-12-16T16:30:24.530Z,101065.66
2022-12-16T16:33:09.995Z,101070.41
2022-12-16T16:35:55.133Z,101075.03
2022-12-16T16:38:40.429Z,101077.25
2022-12-16T16:41:32.884Z,101073.59
2022-12-16T16:44:19.945Z,101078.31
2022-12-16T16:47:05.657Z,101079.25
2022-12-16T16:50:01.536Z,101085.09
2022-12-16T16:52:46.806Z,101095.84
2022-12-16T16:55:40.885Z,101093.97
2022-12-16T16:58:31.327Z,101089.75
2022-12-16T17:01:16.745Z,101094.38
2022-12-16T17:04:02.538Z,101097.78
2022-12-16T17:06:47.971Z,101096.78
2022-12-16T17:09:33.297Z,101092.69
2022-12-16T17:12:18.621Z,101099.53
2022-12-16T17:15:03.947Z,101094.84
2022-12-16T17:17:49.105Z,101099.34
2022-12-16T17:20:37.019Z,101098.00
2022-12-16T17:23:22.300Z,101101.47
2022-12-16T17:26:08.460Z,101099.81
2022-12-16T17:28:53.956Z,101106.69
2022-12-16T17:31:39.228Z,101109.53
2022-12-16T17:34:24.735Z,101105.25
2022-12-16T17:37:10.033Z,101107.16
2022-12-16T17:39:55.348Z,101109.53
2022-12-16T17:42:46.156Z,101118.66
2022-12-16T17:45:35.752Z,101125.56
2022-12-16T17:48:22.345Z,101125.69
2022-12-16T17:51:07.588Z,101129.81
2022-12-16T17:53:58.686Z,101126.34
2022-12-16T17:56:49.483Z,101122.78
2022-12-16T17:59:34.738Z,101126.97
2022-12-16T18:02:19.995Z,101124.28
2022-12-16T18:05:05.449Z,101137.41
2022-12-16T18:07:50.716Z,101136.09
2022-12-16T18:10:36.228Z,101135.38
2022-12-16T18:13:21.424Z,101141.75
2022-12-16T18:16:10.729Z,101144.34
2022-12-16T18:18:56.099Z,101141.34
2022-12-16T18:21:41.322Z,101145.28
2022-12-16T18:24:27.739Z,101151.09
2022-12-16T18:27:13.178Z,101150.09
2022-12-16T18:29:58.515Z,101147.88
2022-12-16T18:32:44.136Z,101154.56
2022-12-16T18:35:29.303Z,101154.13
2022-12-16T18:38:16.565Z,101155.72
2022-12-16T18:41:02.113Z,101155.72
2022-12-16T18:43:47.670Z,101153.22
2022-12-16T18:46:32.890Z,101158.53
2022-12-16T18:49:18.193Z,101161.06
2022-12-16T18:52:03.365Z,101149.03
2022-12-16T18:54:48.708Z,101161.94
2022-12-16T18:57:39.326Z,101160.91
2022-12-16T19:00:25.603Z,101160.41
2022-12-16T19:03:10.999Z,101165.72
2022-12-16T19:05:56.431Z,101175.31
2022-12-16T19:08:41.775Z,101177.84
2022-12-16T19:11:27.102Z,101175.72
2022-12-16T19:14:12.334Z,101176.47
2022-12-16T19:16:57.880Z,101173.16
2022-12-16T19:19:43.202Z,101181.03
2022-12-16T19:22:28.660Z,101192.22
2022-12-16T19:25:13.859Z,101192.84
2022-12-16T19:27:59.356Z,101200.78
2022-12-16T19:30:44.621Z,101192.91
2022-12-16T19:33:30.394Z,101195.28
2022-12-16T19:36:15.737Z,101200.66
2022-12-16T19:39:01.112Z,101206.72
2022-12-16T19:41:46.462Z,101196.97
2022-12-16T19:44:31.924Z,101209.50
2022-12-16T19:47:17.225Z,101203.25
2022-12-16T19:50:02.652Z,101208.75
2022-12-16T19:52:47.917Z,101213.84
2022-12-16T19:55:33.610Z,101218.00
2022-12-16T19:58:19.017Z,101216.63
2022-12-16T20:01:05.641Z,101214.53
2022-12-16T20:03:52.351Z,101222.16
2022-12-16T20:06:40.768Z,101217.03
2022-12-16T20:09:26.054Z,101223.03
2022-12-16T20:12:11.604Z,101231.25
2022-12-16T20:14:56.818Z,101226.72
2022-12-16T20:17:42.192Z,101237.06
2022-12-16T20:20:27.658Z,101245.53
2022-12-16T20:23:14.488Z,101243.91
2022-12-16T20:25:59.826Z,101249.81
2022-12-16T20:28:55.888Z,101254.09
2022-12-16T20:31:41.354Z,101257.72
2022-12-16T20:34:27.567Z,101262.91
2022-12-16T20:37:12.841Z,101265.72
2022-12-16T20:39:58.296Z,101262.31
2022-12-16T20:42:44.486Z,101269.13
2022-12-16T20:45:30.394Z,101263.97
2022-12-16T20:48:15.560Z,101270.91
2022-12-16T20:51:00.985Z,101276.94
2022-12-16T20:53:46.268Z,101276.22
2022-12-16T20:56:31.698Z,101279.53
2022-12-16T20:59:18.861Z,101279.53
2022-12-16T21:05:09.700Z,101281.28
2022-12-16T21:07:54.987Z,101289.88
2022-12-16T21:10:42.188Z,101286.41
2022-12-16T21:13:32.521Z,101288.16
2022-12-16T21:16:19.301Z,101301.19
2022-12-16T21:19:04.935Z,101301.19
2022-12-16T21:21:50.338Z,101304.91
2022-12-16T21:24:35.605Z,101310.16
2022-12-16T21:27:20.956Z,101315.19
2022-12-16T21:30:06.328Z,101324.69
2022-12-16T21:32:51.713Z,101327.44
2022-12-16T21:35:39.195Z,101327.50
2022-12-16T21:38:33.603Z,101317.16
2022-12-16T21:41:19.290Z,101322.34
2022-12-16T21:44:04.796Z,101318.00
2022-12-16T21:46:50.013Z,101324.91
2022-12-16T21:49:35.380Z,101324.69
2022-12-16T21:52:20.711Z,101333.34
2022-12-16T21:55:06.811Z,101332.63
2022-12-16T22:01:00.480Z,101339.47
2022-12-16T22:03:53.108Z,101339.75
2022-12-16T22:06:42.174Z,101343.91
2022-12-16T22:09:33.364Z,101349.13
2022-12-16T22:12:18.753Z,101347.38
2022-12-16T22:15:04.180Z,101348.47
2022-12-16T22:17:57.757Z,101347.44
2022-12-16T22:20:44.737Z,101353.41
2022-12-16T22:23:30.227Z,101351.06
2022-12-16T22:26:19.476Z,101362.34
2022-12-16T22:29:04.773Z,101358.94
2022-12-16T22:31:50.417Z,101355.47
2022-12-16T22:34:37.755Z,101349.25
2022-12-16T22:37:24.851Z,101356.47
2022-12-16T22:40:10.149Z,101360.81
2022-12-16T22:42:56.275Z,101366.81
2022-12-16T22:45:41.653Z,101372.75
2022-12-16T22:48:27.698Z,101367.09
2022-12-16T22:51:13.016Z,101366.69
2022-12-16T22:53:59.659Z,101366.97
2022-12-16T22:56:45.188Z,101371.31
2022-12-16T22:59:31.528Z,101375.22
2022-12-16T23:02:27.330Z,101379.44
2022-12-16T23:05:14.754Z,101381.59
2022-12-16T23:08:00.167Z,101380.44
2022-12-16T23:10:45.851Z,101378.69
2022-12-16T23:13:32.722Z,101380.44
2022-12-16T23:16:18.292Z,101377.78
2022-12-16T23:19:15.313Z,101384.72
2022-12-16T23:22:00.651Z,101387.66
2022-12-16T23:24:45.930Z,101383.03
2022-12-16T23:27:31.272Z,101388.47
2022-12-16T23:30:16.604Z,101385.66
2022-12-16T23:32:30.552Z,101336.16
2022-12-16T23:33:01.750Z,101395.06
2022-12-16T23:35:47.191Z,101399.13
2022-12-16T23:38:32.758Z,101398.81
2022-12-16T23:41:18.246Z,101396.91
2022-12-16T23:44:03.761Z,101395.13
2022-12-16T23:46:49.761Z,101396.59
2022-12-16T23:49:35.234Z,101401.19
2022-12-16T23:52:20.624Z,101397.13
2022-12-16T23:55:05.923Z,101390.72
2022-12-16T23:57:57.721Z,101396.38
